createdAt,value
2022-08-11T00:04:36.418Z,56.85
2022-08-11T00:07:21.544Z,60.48
2022-08-11T00:09:51.109Z,60.12
2022-08-11T00:12:22.866Z,59.02
2022-08-11T00:15:02.632Z,60.09
2022-08-11T00:17:36.690Z,61.18
2022-08-11T00:20:16.581Z,60.66
2022-08-11T00:23:29.911Z,57.72
2022-08-11T00:26:34.479Z,63.23
2022-08-11T00:29:11.211Z,58.11
2022-08-11T00:31:50.814Z,62.95
2022-08-11T00:34:26.187Z,61.16
2022-08-11T00:37:26.897Z,60.01
2022-08-11T00:40:23.844Z,60.62
2022-08-11T00:43:05.833Z,58.98
2022-08-11T00:45:52.828Z,62.46
2022-08-11T00:48:31.335Z,59.64
2022-08-11T00:51:12.134Z,62.44
2022-08-11T00:53:57.771Z,61.40
2022-08-11T00:57:37.748Z,60.48
2022-08-11T01:00:18.420Z,58.50
2022-08-11T01:03:29.545Z,62.31
2022-08-11T01:06:50.396Z,57.91
2022-08-11T01:10:13.174Z,62.33
2022-08-11T01:12:54.454Z,60.95
2022-08-11T01:16:23.144Z,59.70
2022-08-11T01:20:45.789Z,60.03
2022-08-11T01:23:07.283Z,62.99
2022-08-11T01:26:36.590Z,58.34
2022-08-11T01:29:57.639Z,59.24
2022-08-11T01:33:20.302Z,63.62
2022-08-11T01:36:53.439Z,63.13
2022-08-11T01:40:01.681Z,63.85
2022-08-11T01:43:38.143Z,65.06
2022-08-11T01:46:16.775Z,60.63
2022-08-11T01:48:55.469Z,59.27
2022-08-11T01:51:47.118Z,58.80
2022-08-11T01:54:28.800Z,62.04
2022-08-11T01:57:14.979Z,64.14
2022-08-11T01:59:52.914Z,63.41
2022-08-11T02:02:48.219Z,63.18
2022-08-11T02:05:40.792Z,62.82
2022-08-11T02:08:33.286Z,62.10
2022-08-11T02:11:35.845Z,58.98
2022-08-11T02:14:20.857Z,63.16
2022-08-11T02:17:16.237Z,60.76
2022-08-11T02:20:14.113Z,63.29
2022-08-11T02:24:04.468Z,62.35
2022-08-11T02:26:14.641Z,62.05
2022-08-11T02:29:05.619Z,61.99
2022-08-11T02:32:24.242Z,62.80
2022-08-11T02:35:12.216Z,61.29
2022-08-11T02:38:03.618Z,65.32
2022-08-11T02:40:48.065Z,59.39
2022-08-11T02:43:38.608Z,64.01
2022-08-11T02:46:25.063Z,63.80
2022-08-11T02:49:24.190Z,62.75
2022-08-11T02:52:08.777Z,62.49
2022-08-11T02:54:52.267Z,64.16
2022-08-11T02:57:30.756Z,64.14
2022-08-11T03:00:11.013Z,60.98
2022-08-11T03:03:00.777Z,61.00
2022-08-11T03:05:50.638Z,64.62
2022-08-11T03:08:41.604Z,65.72
2022-08-11T03:11:36.434Z,64.62
2022-08-11T03:14:39.624Z,62.42
2022-08-11T03:17:27.390Z,64.27
2022-08-11T03:20:38.086Z,65.38
2022-08-11T03:23:20.469Z,65.38
2022-08-11T03:26:02.715Z,61.60
2022-08-11T03:28:36.446Z,67.98
2022-08-11T03:31:28.065Z,65.42
2022-08-11T03:34:08.077Z,64.11
2022-08-11T03:37:39.759Z,60.60
2022-08-11T03:40:42.429Z,67.47
2022-08-11T03:43:32.371Z,65.96
2022-08-11T03:46:13.858Z,65.92
2022-08-11T03:48:59.960Z,65.21
2022-08-11T03:51:51.853Z,62.17
2022-08-11T03:54:33.821Z,65.27
2022-08-11T03:58:04.444Z,60.65
2022-08-11T04:01:16.560Z,63.38
2022-08-11T04:04:21.671Z,64.78
2022-08-11T04:07:55.730Z,65.44
2022-08-11T04:10:48.050Z,63.37
2022-08-11T04:14:24.853Z,63.45
2022-08-11T04:17:38.133Z,64.30
2022-08-11T04:20:29.762Z,63.03
2022-08-11T04:24:36.971Z,64.71
2022-08-11T04:27:08.191Z,69.43
2022-08-11T04:30:05.486Z,66.81
2022-08-11T04:33:16.684Z,63.14
2022-08-11T04:36:01.673Z,67.66
2022-08-11T04:39:03.334Z,64.38
2022-08-11T04:42:31.500Z,65.60
2022-08-11T04:45:40.916Z,63.25
2022-08-11T04:48:59.546Z,65.70
2022-08-11T04:52:37.459Z,64.87
2022-08-11T04:55:48.096Z,64.73
2022-08-11T04:58:45.930Z,64.89
2022-08-11T05:01:46.110Z,67.07
2022-08-11T05:05:16.616Z,65.42
2022-08-11T05:08:54.157Z,66.00
2022-08-11T05:12:16.054Z,61.59
2022-08-11T05:15:10.331Z,63.50
2022-08-11T05:18:02.844Z,64.88
2022-08-11T05:21:04.996Z,64.09
2022-08-11T05:23:58.758Z,64.25
2022-08-11T05:26:49.375Z,63.87
2022-08-11T05:30:03.179Z,60.97
2022-08-11T05:33:01.699Z,64.21
2022-08-11T05:36:01.350Z,60.06
2022-08-11T05:38:55.056Z,64.63
2022-08-11T05:41:44.728Z,64.56
2022-08-11T05:44:37.540Z,63.80
2022-08-11T05:47:28.680Z,64.00
2022-08-11T05:50:15.721Z,62.55
2022-08-11T05:53:09.280Z,63.72
2022-08-11T05:56:02.876Z,59.37
2022-08-11T05:58:43.491Z,64.96
2022-08-11T06:01:15.220Z,63.59
2022-08-11T06:04:09.794Z,61.21
2022-08-11T06:06:45.351Z,59.54
2022-08-11T06:09:19.386Z,61.22
2022-08-11T06:11:48.723Z,59.23
2022-08-11T06:14:18.483Z,61.25
2022-08-11T06:16:51.456Z,59.63
2022-08-11T06:19:24.954Z,63.25
2022-08-11T06:21:55.002Z,57.44
2022-08-11T06:24:29.330Z,56.80
2022-08-11T06:27:12.256Z,57.77
2022-08-11T06:29:54.703Z,54.88
2022-08-11T06:32:34.088Z,60.83
2022-08-11T06:35:22.809Z,61.28
2022-08-11T06:38:08.139Z,59.71
2022-08-11T06:41:05.345Z,57.34
2022-08-11T06:43:55.529Z,57.14
2022-08-11T06:46:37.269Z,59.98
2022-08-11T06:49:27.232Z,57.29
2022-08-11T06:52:01.777Z,61.23
2022-08-11T06:54:36.076Z,60.55
2022-08-11T06:57:29.778Z,56.13
2022-08-11T07:00:23.566Z,58.93
2022-08-11T07:03:00.831Z,53.81
2022-08-11T07:05:48.280Z,53.15
2022-08-11T07:09:29.091Z,54.72
2022-08-11T07:13:02.067Z,50.81
2022-08-11T07:16:12.769Z,54.68
2022-08-11T07:18:59.016Z,50.50
2022-08-11T07:22:02.832Z,50.56
2022-08-11T07:24:59.298Z,50.77
2022-08-11T07:28:02.349Z,48.53
2022-08-11T07:30:34.309Z,47.01
2022-08-11T07:33:10.387Z,48.27
2022-08-11T07:35:55.765Z,47.67
2022-08-11T07:38:43.464Z,47.48
2022-08-11T07:41:24.747Z,47.28
2022-08-11T07:44:08.917Z,47.76
2022-08-11T07:47:00.876Z,46.22
2022-08-11T07:49:54.819Z,45.57
2022-08-11T07:52:33.818Z,45.44
2022-08-11T07:55:08.484Z,46.39
2022-08-11T08:01:22.942Z,46.98
2022-08-11T08:04:10.455Z,47.31
2022-08-11T08:06:59.259Z,47.29
2022-08-11T08:09:46.877Z,47.62
2022-08-11T08:12:39.398Z,46.11
2022-08-11T08:15:34.823Z,47.29
2022-08-11T08:18:09.841Z,46.44
2022-08-11T08:20:57.172Z,46.25
2022-08-11T08:23:36.167Z,46.93
2022-08-11T08:26:32.044Z,45.74
2022-08-11T08:29:19.176Z,45.27
2022-08-11T08:31:50.735Z,45.73
2022-08-11T08:34:23.908Z,45.55
2022-08-11T08:36:54.095Z,44.37
2022-08-11T08:39:26.025Z,43.92
2022-08-11T08:41:58.160Z,44.24
2022-08-11T08:44:40.940Z,44.57
2022-08-11T08:47:41.440Z,44.07
2022-08-11T08:50:19.681Z,45.38
2022-08-11T08:52:58.290Z,44.33
2022-08-11T08:55:30.536Z,43.61
2022-08-11T08:58:04.129Z,43.09
2022-08-11T09:00:43.882Z,42.16
2022-08-11T09:06:23.430Z,45.30
2022-08-11T09:08:56.599Z,44.59
2022-08-11T09:11:46.353Z,43.11
2022-08-11T09:14:24.961Z,43.04
2022-08-11T09:17:06.431Z,42.60
2022-08-11T09:19:41.361Z,43.49
2022-08-11T09:22:29.903Z,42.12
2022-08-11T09:25:22.434Z,42.64
2022-08-11T09:27:56.681Z,43.32
2022-08-11T09:30:27.626Z,41.02
2022-08-11T09:33:17.833Z,40.64
2022-08-11T09:35:53.460Z,41.95
2022-08-11T09:38:49.427Z,40.85
2022-08-11T09:42:01.067Z,41.04
2022-08-11T09:44:51.849Z,41.80
2022-08-11T09:47:30.122Z,41.46
2022-08-11T09:50:09.631Z,40.68
2022-08-11T09:53:03.579Z,38.92
2022-08-11T09:55:53.582Z,40.45
2022-08-11T09:58:42.104Z,39.98
2022-08-11T10:01:29.632Z,39.54
2022-08-11T10:04:15.569Z,40.05
2022-08-11T10:07:05.600Z,39.89
2022-08-11T10:09:53.615Z,40.93
2022-08-11T10:12:27.284Z,40.07
2022-08-11T10:15:22.715Z,39.43
2022-08-11T10:18:26.467Z,38.10
2022-08-11T10:22:07.870Z,39.48
2022-08-11T10:25:20.238Z,40.03
2022-08-11T10:28:32.775Z,38.82
2022-08-11T10:31:15.042Z,38.64
2022-08-11T10:34:13.267Z,38.51
2022-08-11T10:36:50.580Z,38.71
2022-08-11T10:42:57.111Z,38.20
2022-08-11T10:45:47.035Z,37.14
2022-08-11T10:48:17.750Z,37.02
2022-08-11T10:51:15.072Z,37.10
2022-08-11T10:54:14.424Z,36.83
2022-08-11T10:57:04.463Z,36.25
2022-08-11T10:59:50.146Z,37.19
2022-08-11T11:03:24.433Z,36.04
2022-08-11T11:06:28.273Z,35.73
2022-08-11T11:09:22.751Z,36.56
2022-08-11T11:12:15.044Z,36.18
2022-08-11T11:15:03.673Z,37.48
2022-08-11T11:17:57.827Z,35.54
2022-08-11T11:20:36.316Z,36.81
2022-08-11T11:23:19.130Z,35.00
2022-08-11T11:26:35.345Z,36.63
2022-08-11T11:30:22.588Z,36.07
2022-08-11T11:34:12.404Z,34.99
2022-08-11T11:36:54.543Z,35.56
2022-08-11T11:39:33.161Z,35.19
2022-08-11T11:42:11.539Z,36.64
2022-08-11T11:44:44.803Z,35.27
2022-08-11T11:47:21.702Z,36.21
2022-08-11T11:50:11.889Z,36.24
2022-08-11T11:52:48.881Z,34.56
2022-08-11T11:55:31.164Z,35.03
2022-08-11T11:58:44.302Z,35.34
2022-08-11T12:01:34.201Z,35.24
2022-08-11T12:04:08.405Z,37.83
2022-08-11T12:07:30.347Z,34.76
2022-08-11T12:10:19.381Z,35.71
2022-08-11T12:13:07.260Z,34.87
2022-08-11T12:16:31.598Z,34.46
2022-08-11T12:18:32.263Z,32.90
2022-08-11T12:21:05.040Z,31.06
2022-08-11T12:23:53.524Z,30.73
2022-08-11T12:26:41.217Z,32.25
2022-08-11T12:29:13.171Z,31.04
2022-08-11T12:31:44.140Z,30.81
2022-08-11T12:34:15.578Z,32.35
2022-08-11T12:36:56.797Z,29.43
2022-08-11T12:40:16.286Z,30.38
2022-08-11T12:43:00.151Z,30.32
2022-08-11T12:45:33.982Z,27.55
2022-08-11T12:48:58.806Z,27.85
2022-08-11T12:52:11.160Z,26.78
2022-08-11T12:54:38.978Z,26.10
2022-08-11T12:57:36.391Z,26.42
2022-08-11T13:00:26.623Z,27.11
2022-08-11T13:03:18.579Z,27.00
2022-08-11T13:05:49.704Z,27.57
2022-08-11T13:08:21.835Z,27.49
2022-08-11T13:11:11.361Z,27.30
2022-08-11T13:13:53.954Z,25.99
2022-08-11T13:16:56.102Z,26.63
2022-08-11T13:19:35.027Z,26.24
2022-08-11T13:22:41.412Z,25.46
2022-08-11T13:25:39.083Z,25.39
2022-08-11T13:28:42.442Z,25.81
2022-08-11T13:31:31.759Z,26.33
2022-08-11T13:37:12.886Z,25.06
2022-08-11T13:39:51.691Z,25.46
2022-08-11T13:42:22.569Z,22.85
2022-08-11T13:44:56.688Z,25.38
2022-08-11T13:47:29.744Z,26.20
2022-08-11T13:50:19.497Z,25.50
2022-08-11T13:53:03.935Z,26.67
2022-08-11T13:56:41.856Z,27.01
2022-08-11T13:59:31.193Z,28.47
2022-08-11T14:02:22.096Z,28.29
2022-08-11T14:05:07.150Z,29.12
2022-08-11T14:08:37.315Z,27.66
2022-08-11T14:12:21.920Z,28.74
2022-08-11T14:14:23.166Z,29.59
2022-08-11T14:17:01.136Z,29.08
2022-08-11T14:19:42.134Z,28.65
2022-08-11T14:22:15.905Z,27.55
2022-08-11T14:24:49.650Z,28.34
2022-08-11T14:28:30.904Z,28.04
2022-08-11T14:30:29.837Z,27.60
2022-08-11T14:33:01.386Z,27.05
2022-08-11T14:35:49.430Z,26.90
2022-08-11T14:38:22.399Z,27.14
2022-08-11T14:41:13.667Z,27.85
2022-08-11T14:44:13.246Z,26.78
2022-08-11T14:47:02.740Z,26.54
2022-08-11T14:49:49.218Z,26.46
2022-08-11T14:56:12.602Z,27.05
2022-08-11T14:58:44.897Z,27.55
2022-08-11T15:05:19.899Z,29.04
2022-08-11T15:12:33.639Z,27.96
2022-08-11T15:15:26.328Z,28.64
2022-08-11T15:18:00.194Z,28.33
2022-08-11T15:21:13.007Z,27.84
2022-08-11T15:24:01.130Z,29.17
2022-08-11T15:27:15.732Z,29.92
2022-08-11T15:30:10.751Z,29.76
2022-08-11T15:33:12.493Z,28.66
2022-08-11T15:36:03.413Z,30.02
2022-08-11T15:38:39.555Z,30.97
2022-08-11T15:41:35.751Z,30.18
2022-08-11T15:44:58.996Z,30.33
2022-08-11T15:47:30.882Z,30.89
2022-08-11T15:50:13.763Z,31.20
2022-08-11T15:53:11.477Z,30.96
2022-08-11T15:55:48.705Z,31.58
2022-08-11T16:02:59.912Z,32.36
2022-08-11T16:05:45.510Z,31.58
2022-08-11T16:08:32.752Z,32.22
2022-08-11T16:11:10.858Z,32.49
2022-08-11T16:16:58.065Z,31.44
2022-08-11T16:19:35.198Z,31.75
2022-08-11T16:22:08.535Z,32.62
2022-08-11T16:27:02.157Z,32.35
2022-08-11T16:27:42.216Z,32.84
2022-08-11T16:30:14.917Z,32.81
2022-08-11T16:32:49.108Z,32.26
2022-08-11T16:35:49.967Z,32.55
2022-08-11T16:38:35.736Z,34.08
2022-08-11T16:41:11.882Z,33.18
2022-08-11T16:44:18.808Z,32.04
2022-08-11T16:47:08.994Z,32.26
2022-08-11T16:49:41.034Z,32.33
2022-08-11T16:52:13.060Z,33.17
2022-08-11T16:54:45.625Z,32.48
2022-08-11T16:57:36.089Z,32.96
2022-08-11T17:00:14.885Z,32.42
2022-08-11T17:03:08.620Z,33.30
2022-08-11T17:06:04.727Z,32.72
2022-08-11T17:09:01.668Z,33.59
2022-08-11T17:11:54.413Z,33.38
2022-08-11T17:14:35.614Z,33.20
2022-08-11T17:17:11.796Z,33.23
2022-08-11T17:20:40.881Z,33.98
2022-08-11T17:23:03.765Z,33.76
2022-08-11T17:26:03.293Z,34.34
2022-08-11T17:28:28.511Z,34.61
2022-08-11T17:31:21.888Z,34.37
2022-08-11T17:34:12.276Z,35.17
2022-08-11T17:36:45.697Z,35.28
2022-08-11T17:39:16.709Z,34.57
2022-08-11T17:42:07.208Z,35.00
2022-08-11T17:44:55.010Z,35.64
2022-08-11T17:47:44.826Z,34.90
2022-08-11T17:50:16.997Z,36.12
2022-08-11T17:53:07.190Z,35.93
2022-08-11T17:55:57.845Z,37.14
2022-08-11T17:58:48.263Z,35.95
2022-08-11T18:01:20.529Z,36.61
2022-08-11T18:03:57.932Z,35.60
2022-08-11T18:06:34.694Z,35.79
2022-08-11T18:09:29.207Z,36.19
2022-08-11T18:12:16.994Z,36.87
2022-08-11T18:15:08.514Z,36.69
2022-08-11T18:17:56.114Z,37.46
2022-08-11T18:20:43.401Z,36.63
2022-08-11T18:23:40.664Z,36.00
2022-08-11T18:26:39.912Z,36.89
2022-08-11T18:29:27.385Z,36.41
2022-08-11T18:32:21.267Z,36.36
2022-08-11T18:35:12.909Z,36.28
2022-08-11T18:38:06.235Z,36.97
2022-08-11T18:40:56.405Z,37.33
2022-08-11T18:43:47.782Z,37.24
2022-08-11T18:46:36.910Z,36.89
2022-08-11T18:50:01.562Z,36.92
2022-08-11T18:52:40.159Z,37.90
2022-08-11T18:55:33.820Z,36.80
2022-08-11T18:58:24.355Z,36.33
2022-08-11T19:01:17.541Z,37.19
2022-08-11T19:04:11.025Z,37.26
2022-08-11T19:07:00.265Z,38.42
2022-08-11T19:09:51.083Z,38.14
2022-08-11T19:12:48.710Z,38.20
2022-08-11T19:15:39.031Z,37.96
2022-08-11T19:18:59.538Z,39.87
2022-08-11T19:21:49.001Z,38.87
2022-08-11T19:24:40.057Z,38.27
2022-08-11T19:27:43.622Z,38.13
2022-08-11T19:30:39.132Z,37.49
2022-08-11T19:33:59.728Z,37.61
2022-08-11T19:37:08.500Z,37.86
2022-08-11T19:39:58.585Z,39.14
2022-08-11T19:42:55.808Z,38.72
2022-08-11T19:45:43.264Z,38.83
2022-08-11T19:49:07.285Z,39.21
2022-08-11T19:52:18.555Z,37.71
2022-08-11T19:55:09.412Z,38.59
2022-08-11T19:58:00.112Z,38.16
2022-08-11T20:00:48.363Z,40.00
2022-08-11T20:03:34.966Z,38.72
2022-08-11T20:06:27.312Z,36.88
2022-08-11T20:09:20.314Z,38.32
2022-08-11T20:12:12.748Z,38.52
2022-08-11T20:15:01.641Z,37.90
2022-08-11T20:17:55.164Z,37.32
2022-08-11T20:20:44.123Z,38.06
2022-08-11T20:23:35.528Z,38.29
2022-08-11T20:26:31.839Z,38.61
2022-08-11T20:29:20.175Z,38.65
2022-08-11T20:32:09.789Z,38.76
2022-08-11T20:34:59.068Z,39.37
2022-08-11T20:37:51.085Z,37.65
2022-08-11T20:40:42.771Z,37.58
2022-08-11T20:44:08.206Z,37.74
2022-08-11T20:46:39.226Z,36.34
2022-08-11T20:49:45.079Z,37.23
2022-08-11T20:52:39.493Z,36.50
2022-08-11T20:55:51.864Z,37.60
2022-08-11T21:01:58.976Z,37.13
2022-08-11T21:06:09.547Z,37.43
2022-08-11T21:09:21.410Z,38.46
2022-08-11T21:12:17.235Z,39.13
2022-08-11T21:15:14.253Z,38.47
2022-08-11T21:18:28.316Z,38.65
2022-08-11T21:21:18.700Z,40.88
2022-08-11T21:24:09.227Z,39.82
2022-08-11T21:27:03.615Z,39.95
2022-08-11T21:29:54.191Z,38.05
2022-08-11T21:32:44.863Z,38.14
2022-08-11T21:35:31.771Z,41.82
2022-08-11T21:38:24.988Z,40.03
2022-08-11T21:41:12.678Z,40.45
2022-08-11T21:44:01.671Z,39.96
2022-08-11T21:46:50.243Z,39.25
2022-08-11T21:49:40.697Z,41.90
2022-08-11T21:52:27.563Z,40.93
2022-08-11T21:55:14.942Z,40.59
2022-08-11T21:58:02.707Z,40.98
2022-08-11T22:00:49.923Z,39.30
2022-08-11T22:03:47.699Z,40.96
2022-08-11T22:06:40.171Z,40.18
2022-08-11T22:09:26.834Z,39.65
2022-08-11T22:12:29.480Z,40.57
2022-08-11T22:15:21.142Z,42.51
2022-08-11T22:18:07.585Z,42.26
2022-08-11T22:20:54.272Z,40.25
2022-08-11T22:23:43.421Z,43.46
2022-08-11T22:26:32.115Z,41.72
2022-08-11T22:29:19.938Z,41.31
2022-08-11T22:32:29.492Z,41.98
2022-08-11T22:35:16.625Z,41.86
2022-08-11T22:38:05.817Z,43.88
2022-08-11T22:40:55.605Z,41.75
2022-08-11T22:43:42.159Z,43.33
2022-08-11T22:46:28.789Z,44.62
2022-08-11T22:49:16.715Z,45.94
2022-08-11T22:52:03.900Z,43.59
2022-08-11T22:54:52.741Z,44.81
2022-08-11T22:57:41.210Z,43.80
2022-08-11T23:00:48.559Z,43.92
2022-08-11T23:03:37.992Z,45.95
2022-08-11T23:06:26.113Z,44.63
2022-08-11T23:09:13.886Z,43.68
2022-08-11T23:12:07.278Z,44.40
2022-08-11T23:14:59.727Z,47.53
2022-08-11T23:17:47.058Z,43.47
2022-08-11T23:20:36.697Z,44.15
2022-08-11T23:23:29.233Z,47.41
2022-08-11T23:26:17.285Z,45.09
2022-08-11T23:29:05.277Z,43.66
2022-08-11T23:31:55.356Z,46.44
2022-08-11T23:35:03.540Z,43.46
2022-08-11T23:38:00.329Z,43.40
2022-08-11T23:40:46.338Z,47.19
2022-08-11T23:43:38.806Z,44.98
2022-08-11T23:46:25.543Z,43.26
2022-08-11T23:49:18.279Z,46.91
2022-08-11T23:52:06.413Z,45.34
2022-08-11T23:54:54.171Z,47.27
2022-08-11T23:57:47.934Z,47.47
